Main page
METAR-TAF:

METAR-TAF

Airports :

Angoon Seaplane Base

Angoon, Alaska, United States

latitude: 57-30N, longitude: 134-35W, elevation: 0 m

Current weather observation

The report was made 1 hour and 3 minutes ago, at 01:56 UTC
Wind 3 kt from variable directions
Temperature 13°C
Humidity 44%
Pressure 1021 hPa
Visibility: 16.1 km
Clear sky

METAR: PAGN 200156Z AUTO VRB03KT 10SM CLR 13/01 A3015 RMK AO2 SLP199 T01280011

Time: 18:59 (02:59 UTC)


TAF: missing

Weather observations and forecasts of more than 4000 airports (METAR and TAF reports).

The available stations are represented by yellow and red dots on the map.

Hover mouse over dot to see the name of the station.

Then click to see weather observations and forecasts.

To change the map : click on the green buttons with a black cross to zoom in, on the green button with a dash to zoom out, or on the green arrows for adjacent maps.


METAR-TAF: